< < Back
Terminal Aerodrome Forecast


Current Version              Previous Versions:   1  2  3  4  5  6  7  8  9  

Terminal Aerodrome Forecast

516
FTUS42 KCHS 290252 AAB
TAFCHS
TAF AMD
KCHS 290252Z 2903/2924 24006KT P6SM MIFG SCT250
     FM291300 33007KT P6SM SKC
     FM292100 19009KT P6SM SCT060=

Latest METAR

534
SAUS80 KWBC 291900 RRB
MTRCHS
METAR KCHS 291856Z 14004KT 10SM FEW050 FEW250 31/15 A2994 RMK AO2 SLP138
T03060150


USA.gov is the U.S. government's official web portal to all federal, state and local government web resources and services.